createdAt,value
2023-05-19T00:00:00.371Z,7.47
2023-05-19T00:02:27.972Z,6.72
2023-05-19T00:04:55.825Z,8.30
2023-05-19T00:07:29.213Z,7.20
2023-05-19T00:09:56.886Z,7.72
2023-05-19T00:12:24.573Z,9.07
2023-05-19T00:14:52.193Z,8.35
2023-05-19T00:17:20.447Z,8.52
2023-05-19T00:19:48.042Z,7.55
2023-05-19T00:22:16.107Z,9.63
2023-05-19T00:24:43.583Z,9.02
2023-05-19T00:27:11.116Z,8.32
2023-05-19T00:29:38.556Z,8.30
2023-05-19T00:32:06.314Z,7.03
2023-05-19T00:34:33.894Z,9.25
2023-05-19T00:37:01.270Z,7.55
2023-05-19T00:39:28.661Z,7.47
2023-05-19T00:41:56.248Z,7.30
2023-05-19T00:44:23.578Z,7.65
2023-05-19T00:46:51.012Z,8.35
2023-05-19T00:49:18.384Z,7.05
2023-05-19T00:51:46.517Z,8.02
2023-05-19T00:54:13.854Z,8.15
2023-05-19T00:56:41.559Z,7.85
2023-05-19T00:59:08.952Z,8.75
2023-05-19T01:01:36.888Z,7.68
2023-05-19T01:04:05.651Z,8.13
2023-05-19T01:06:33.135Z,8.32
2023-05-19T01:09:00.479Z,7.88
2023-05-19T01:11:27.894Z,8.55
2023-05-19T01:13:56.183Z,8.55
2023-05-19T01:16:47.282Z,8.73
2023-05-19T01:19:37.227Z,8.60
2023-05-19T01:22:37.380Z,9.63
2023-05-19T01:25:29.976Z,9.70
2023-05-19T01:28:06.512Z,9.13
2023-05-19T01:30:52.790Z,9.15
2023-05-19T01:33:22.775Z,9.25
2023-05-19T01:35:51.104Z,9.80
2023-05-19T01:38:20.615Z,9.98
2023-05-19T01:40:49.572Z,9.18
2023-05-19T01:43:20.481Z,9.95
2023-05-19T01:45:49.101Z,9.43
2023-05-19T01:48:17.825Z,9.98
2023-05-19T01:50:45.453Z,10.35
2023-05-19T01:53:12.950Z,10.35
2023-05-19T01:55:48.250Z,10.73
2023-05-19T01:58:19.115Z,11.13
2023-05-19T02:00:58.493Z,10.43
2023-05-19T02:03:52.198Z,10.73
2023-05-19T02:06:38.461Z,12.93
2023-05-19T02:09:36.782Z,11.65
2023-05-19T02:12:23.460Z,12.80
2023-05-19T02:14:59.762Z,11.63
2023-05-19T02:17:33.284Z,12.05
2023-05-19T02:20:01.087Z,13.65
2023-05-19T02:22:28.485Z,12.27
2023-05-19T02:24:57.581Z,13.80
2023-05-19T02:27:24.974Z,14.55
2023-05-19T02:29:52.737Z,12.52
2023-05-19T02:32:21.147Z,12.05
2023-05-19T02:34:48.544Z,11.52
2023-05-19T02:37:16.814Z,12.00
2023-05-19T02:39:44.860Z,11.05
2023-05-19T02:42:12.771Z,11.95
2023-05-19T02:44:40.055Z,12.07
2023-05-19T02:47:07.376Z,12.98
2023-05-19T02:49:37.997Z,12.18
2023-05-19T02:52:06.831Z,12.05
2023-05-19T02:54:35.152Z,11.73
2023-05-19T02:57:02.547Z,12.40
2023-05-19T02:59:29.863Z,11.20
2023-05-19T03:02:01.251Z,13.02
2023-05-19T03:04:29.738Z,12.15
2023-05-19T03:06:57.876Z,12.23
2023-05-19T03:09:25.367Z,12.15
2023-05-19T03:11:52.756Z,12.00
2023-05-19T03:14:24.063Z,12.05
2023-05-19T03:16:51.769Z,11.68
2023-05-19T03:19:19.342Z,12.18
2023-05-19T03:21:47.738Z,11.18
2023-05-19T03:24:15.092Z,12.27
2023-05-19T03:26:42.877Z,10.98
2023-05-19T03:29:10.554Z,12.07
2023-05-19T03:31:38.107Z,11.93
2023-05-19T03:34:05.656Z,11.98
2023-05-19T03:36:33.144Z,12.23
2023-05-19T03:39:00.819Z,11.25
2023-05-19T03:41:28.163Z,11.07
2023-05-19T03:43:55.528Z,11.13
2023-05-19T03:46:22.872Z,11.98
2023-05-19T03:48:50.764Z,11.50
2023-05-19T03:51:18.117Z,12.05
2023-05-19T03:53:45.743Z,11.48
2023-05-19T03:56:14.062Z,11.93
2023-05-19T03:58:45.125Z,11.77
2023-05-19T04:01:12.546Z,10.60
2023-05-19T04:03:40.143Z,12.35
2023-05-19T04:06:08.269Z,11.82
2023-05-19T04:08:35.962Z,11.68
2023-05-19T04:11:03.322Z,11.20
2023-05-19T04:13:35.069Z,10.95
2023-05-19T04:16:02.699Z,11.38
2023-05-19T04:18:30.094Z,10.82
2023-05-19T04:20:57.473Z,11.63
2023-05-19T04:23:24.836Z,13.10
2023-05-19T04:25:52.365Z,12.25
2023-05-19T04:28:19.739Z,12.85
2023-05-19T04:30:47.104Z,13.60
2023-05-19T04:33:14.591Z,12.30
2023-05-19T04:35:43.877Z,13.13
2023-05-19T04:38:12.156Z,13.27
2023-05-19T04:40:43.237Z,12.70
2023-05-19T04:43:11.582Z,13.82
2023-05-19T04:45:42.643Z,12.23
2023-05-19T04:48:10.071Z,12.77
2023-05-19T04:50:39.078Z,12.82
2023-05-19T04:53:07.093Z,12.75
2023-05-19T04:55:34.812Z,13.82
2023-05-19T04:58:02.169Z,13.10
2023-05-19T05:00:30.026Z,14.13
2023-05-19T05:02:58.172Z,14.52
2023-05-19T05:05:25.693Z,12.07
2023-05-19T05:07:54.256Z,13.13
2023-05-19T05:10:22.544Z,13.65
2023-05-19T05:12:50.557Z,13.80
2023-05-19T05:15:18.557Z,14.38
2023-05-19T05:17:46.642Z,14.63
2023-05-19T05:20:14.821Z,14.90
2023-05-19T05:22:42.668Z,13.18
2023-05-19T05:25:11.300Z,14.00
2023-05-19T05:27:38.832Z,15.77
2023-05-19T05:30:07.042Z,14.32
2023-05-19T05:32:34.694Z,14.18
2023-05-19T05:35:02.415Z,15.48
2023-05-19T05:37:30.995Z,13.70
2023-05-19T05:39:58.292Z,15.05
2023-05-19T05:42:27.085Z,15.73
2023-05-19T05:44:56.294Z,13.80
2023-05-19T05:47:23.906Z,14.10
2023-05-19T05:49:53.489Z,13.85
2023-05-19T05:52:22.901Z,14.25
2023-05-19T05:54:50.927Z,13.68
2023-05-19T05:57:18.437Z,13.15
2023-05-19T05:59:47.362Z,11.68
2023-05-19T06:02:14.849Z,12.02
2023-05-19T06:04:42.220Z,11.90
2023-05-19T06:07:09.984Z,12.98
2023-05-19T06:09:37.335Z,13.70
2023-05-19T06:12:05.100Z,12.07
2023-05-19T06:14:32.700Z,12.48
2023-05-19T06:17:00.090Z,13.35
2023-05-19T06:19:27.502Z,12.68
2023-05-19T06:21:55.002Z,12.50
2023-05-19T06:24:22.419Z,13.60
2023-05-19T06:26:49.719Z,13.00
2023-05-19T06:29:17.307Z,12.00
2023-05-19T06:31:44.806Z,12.77
2023-05-19T06:34:14.998Z,12.52
2023-05-19T06:36:42.758Z,11.95
2023-05-19T06:39:10.101Z,13.63
2023-05-19T06:41:37.541Z,13.10
2023-05-19T06:44:06.807Z,13.93
2023-05-19T06:46:34.187Z,12.30
2023-05-19T06:49:01.713Z,13.07
2023-05-19T06:51:29.088Z,12.38
2023-05-19T06:53:56.530Z,11.45
2023-05-19T06:56:24.090Z,12.98
2023-05-19T06:58:51.470Z,13.30
2023-05-19T07:01:19.097Z,10.68
2023-05-19T07:03:46.858Z,11.90
2023-05-19T07:06:14.423Z,10.95
2023-05-19T07:08:41.779Z,10.35
2023-05-19T07:11:09.822Z,9.85
2023-05-19T07:13:37.323Z,10.57
2023-05-19T07:16:05.075Z,11.55
2023-05-19T07:18:32.759Z,9.18
2023-05-19T07:21:00.428Z,10.55
2023-05-19T07:23:27.816Z,11.90
2023-05-19T07:25:56.668Z,11.40
2023-05-19T07:28:24.175Z,11.45
2023-05-19T07:30:52.155Z,13.98
2023-05-19T07:33:19.470Z,12.77
2023-05-19T07:35:47.162Z,13.75
2023-05-19T07:38:14.645Z,12.30
2023-05-19T07:40:42.021Z,11.48
2023-05-19T07:43:09.424Z,11.07
2023-05-19T07:45:37.141Z,11.90
2023-05-19T07:48:06.065Z,9.90
2023-05-19T07:50:33.774Z,8.55
2023-05-19T07:53:01.323Z,10.32
2023-05-19T07:55:28.886Z,14.40
2023-05-19T07:57:56.398Z,11.13
2023-05-19T08:00:23.962Z,9.38
2023-05-19T08:02:53.073Z,9.65
2023-05-19T08:05:21.542Z,7.97
2023-05-19T08:07:49.102Z,9.38
2023-05-19T08:10:16.539Z,8.25
2023-05-19T08:12:44.304Z,9.35
2023-05-19T08:15:12.058Z,9.93
2023-05-19T08:17:39.502Z,9.63
2023-05-19T08:20:09.101Z,10.82
2023-05-19T08:22:36.939Z,12.90
2023-05-19T08:25:05.768Z,10.77
2023-05-19T08:27:33.658Z,11.23
2023-05-19T08:30:01.130Z,9.98
2023-05-19T08:32:28.498Z,7.82
2023-05-19T08:34:56.117Z,8.50
2023-05-19T08:37:23.484Z,10.73
2023-05-19T08:39:50.995Z,9.05
2023-05-19T08:42:18.408Z,8.85
2023-05-19T08:44:45.844Z,9.55
2023-05-19T08:47:15.361Z,9.35
2023-05-19T08:49:47.258Z,10.23
2023-05-19T08:52:31.427Z,11.18
2023-05-19T08:55:09.716Z,10.88
2023-05-19T08:57:38.187Z,11.57
2023-05-19T09:00:12.377Z,9.55
2023-05-19T09:02:50.450Z,8.45
2023-05-19T09:05:27.569Z,10.45
2023-05-19T09:07:55.337Z,10.43
2023-05-19T09:10:22.927Z,7.70
2023-05-19T09:12:51.425Z,8.95
2023-05-19T09:15:19.404Z,9.43
2023-05-19T09:17:48.421Z,8.93
2023-05-19T09:20:17.679Z,8.95
2023-05-19T09:22:47.341Z,8.32
2023-05-19T09:25:24.164Z,9.25
2023-05-19T09:27:51.556Z,8.13
2023-05-19T09:30:19.734Z,8.68
2023-05-19T09:32:50.401Z,9.75
2023-05-19T09:35:20.331Z,9.25
2023-05-19T09:37:48.473Z,7.78
2023-05-19T09:40:16.430Z,9.02
2023-05-19T09:42:46.640Z,7.72
2023-05-19T09:45:14.014Z,9.15
2023-05-19T09:47:42.382Z,8.88
2023-05-19T09:50:12.031Z,8.82
2023-05-19T09:52:41.028Z,8.38
2023-05-19T09:55:13.057Z,7.97
2023-05-19T09:57:40.987Z,9.23
2023-05-19T10:00:18.807Z,8.80
2023-05-19T10:02:47.726Z,9.07
2023-05-19T10:05:17.716Z,9.23
2023-05-19T10:07:48.485Z,8.57
2023-05-19T10:10:16.321Z,7.25
2023-05-19T10:12:43.961Z,6.28
2023-05-19T10:15:16.898Z,4.43
2023-05-19T10:17:45.426Z,5.05
2023-05-19T10:20:17.372Z,4.80
2023-05-19T10:22:46.571Z,6.60
2023-05-19T10:25:15.289Z,6.10
2023-05-19T10:27:54.473Z,7.93
2023-05-19T10:30:29.910Z,8.10
2023-05-19T10:33:00.468Z,8.07
2023-05-19T10:35:34.175Z,7.32
2023-05-19T10:38:20.472Z,8.35
2023-05-19T10:41:01.301Z,7.23
2023-05-19T10:43:40.571Z,8.77
2023-05-19T10:46:07.957Z,8.50
2023-05-19T10:48:38.153Z,8.85
2023-05-19T10:51:07.315Z,7.97
2023-05-19T10:53:35.214Z,9.48
2023-05-19T10:56:04.159Z,11.13
2023-05-19T10:58:49.514Z,13.00
2023-05-19T11:01:24.602Z,13.07
2023-05-19T11:03:54.058Z,13.07
2023-05-19T11:06:29.728Z,10.55
2023-05-19T11:09:05.448Z,10.33
2023-05-19T11:11:54.887Z,11.13
2023-05-19T11:14:32.610Z,10.95
2023-05-19T11:17:00.695Z,11.80
2023-05-19T11:19:33.267Z,10.10
2023-05-19T11:22:12.542Z,9.18
2023-05-19T11:24:50.171Z,8.35
2023-05-19T11:27:29.172Z,7.07
2023-05-19T11:30:11.553Z,7.28
2023-05-19T11:32:39.973Z,6.05
2023-05-19T11:35:08.981Z,7.13
2023-05-19T11:37:36.829Z,8.25
2023-05-19T11:40:07.276Z,7.78
2023-05-19T11:42:35.870Z,8.05
2023-05-19T11:45:06.933Z,8.13
2023-05-19T11:47:47.031Z,7.97
2023-05-19T11:50:20.687Z,9.48
2023-05-19T11:52:48.538Z,10.18
2023-05-19T11:55:22.238Z,9.02
2023-05-19T11:58:07.700Z,12.48
2023-05-19T12:00:39.836Z,16.73
2023-05-19T12:03:09.156Z,22.23
2023-05-19T12:05:43.149Z,9.85
2023-05-19T12:08:12.325Z,12.80
2023-05-19T12:10:40.870Z,7.75
2023-05-19T12:13:10.162Z,5.18
2023-05-19T12:15:39.237Z,5.47
2023-05-19T12:18:07.333Z,5.57
2023-05-19T12:20:36.142Z,7.47
2023-05-19T12:23:04.634Z,6.88
2023-05-19T12:25:32.855Z,8.15
2023-05-19T12:28:05.248Z,6.80
2023-05-19T12:30:34.630Z,7.22
2023-05-19T12:33:03.412Z,8.30
2023-05-19T12:35:36.481Z,8.10
2023-05-19T12:38:07.652Z,9.40
2023-05-19T12:40:36.509Z,7.70
2023-05-19T12:43:04.559Z,8.45
2023-05-19T12:45:36.527Z,9.63
2023-05-19T12:48:05.947Z,11.65
2023-05-19T12:50:34.385Z,9.25
2023-05-19T12:53:02.176Z,8.30
2023-05-19T12:55:30.482Z,10.63
2023-05-19T12:57:58.749Z,8.38
2023-05-19T13:00:28.705Z,9.35
2023-05-19T13:03:07.463Z,8.85
2023-05-19T13:05:38.415Z,8.35
2023-05-19T13:08:07.867Z,7.38
2023-05-19T13:10:36.878Z,8.10
2023-05-19T13:13:05.480Z,8.25
2023-05-19T13:15:34.579Z,7.93
2023-05-19T13:18:04.148Z,8.13
2023-05-19T13:20:32.324Z,8.48
2023-05-19T13:23:00.558Z,7.18
2023-05-19T13:25:28.298Z,7.30
2023-05-19T13:27:56.782Z,6.00
2023-05-19T13:30:24.457Z,7.25
2023-05-19T13:32:52.837Z,7.10
2023-05-19T13:35:20.618Z,8.13
2023-05-19T13:37:49.159Z,7.03
2023-05-19T13:40:17.567Z,7.68
2023-05-19T13:42:45.585Z,6.88
2023-05-19T13:45:13.078Z,7.32
2023-05-19T13:47:40.665Z,7.32
2023-05-19T13:50:08.708Z,7.18
2023-05-19T13:52:36.187Z,6.70
2023-05-19T13:55:03.911Z,6.75
2023-05-19T13:57:31.240Z,7.80
2023-05-19T14:00:03.161Z,6.85
2023-05-19T14:02:31.137Z,5.97
2023-05-19T14:04:58.846Z,6.68
2023-05-19T14:07:26.287Z,5.68
2023-05-19T14:09:53.729Z,6.03
2023-05-19T14:12:27.550Z,6.13
2023-05-19T14:14:58.849Z,6.93
2023-05-19T14:17:28.794Z,6.72
2023-05-19T14:19:56.607Z,6.03
2023-05-19T14:22:24.447Z,6.57
2023-05-19T14:24:52.013Z,6.38
2023-05-19T14:27:19.470Z,6.55
2023-05-19T14:35:44.204Z,6.63
2023-05-19T14:41:39.796Z,7.13
2023-05-19T14:44:13.292Z,7.18
2023-05-19T14:46:43.290Z,8.60
2023-05-19T14:49:10.842Z,8.23
2023-05-19T14:51:38.275Z,8.27
2023-05-19T14:54:05.661Z,8.45
2023-05-19T14:56:33.088Z,9.00
2023-05-19T14:59:01.834Z,8.63
2023-05-19T15:01:29.413Z,8.15
2023-05-19T15:03:57.205Z,8.63
2023-05-19T15:06:24.750Z,7.93
2023-05-19T15:08:52.326Z,8.73
2023-05-19T15:11:19.710Z,9.77
2023-05-19T15:13:47.103Z,8.77
2023-05-19T15:16:16.970Z,8.88
2023-05-19T15:18:45.640Z,7.85
2023-05-19T15:21:13.378Z,8.30
2023-05-19T15:23:40.756Z,8.98
2023-05-19T15:26:08.197Z,9.02
2023-05-19T15:28:35.774Z,8.98
2023-05-19T15:31:03.272Z,8.70
2023-05-19T15:33:31.172Z,8.88
2023-05-19T15:35:58.599Z,7.82
2023-05-19T15:38:27.734Z,8.15
2023-05-19T15:40:56.996Z,9.07
2023-05-19T15:43:25.540Z,8.90
2023-05-19T15:45:55.255Z,8.35
2023-05-19T15:48:22.701Z,6.65
2023-05-19T15:50:51.571Z,7.97
2023-05-19T15:53:20.471Z,9.27
2023-05-19T15:55:47.834Z,10.98
2023-05-19T15:58:16.660Z,8.23
2023-05-19T16:00:44.519Z,9.65
2023-05-19T16:03:12.171Z,10.27
2023-05-19T16:05:39.542Z,8.55
2023-05-19T16:08:08.709Z,8.05
2023-05-19T16:10:36.390Z,7.25
2023-05-19T16:13:03.861Z,8.52
2023-05-19T16:15:31.228Z,7.95
2023-05-19T16:17:58.893Z,6.95
2023-05-19T16:20:28.262Z,8.95
2023-05-19T16:22:56.169Z,7.20
2023-05-19T16:25:23.722Z,6.90
2023-05-19T16:27:51.531Z,7.65
2023-05-19T16:30:18.988Z,7.60
2023-05-19T16:32:46.845Z,6.47
2023-05-19T16:35:14.400Z,7.68
2023-05-19T16:37:41.899Z,6.50
2023-05-19T16:40:09.653Z,6.85
2023-05-19T16:42:39.490Z,7.68
2023-05-19T16:45:07.740Z,7.85
2023-05-19T16:47:35.587Z,6.80
2023-05-19T16:50:03.652Z,7.43
2023-05-19T16:52:31.215Z,7.80
2023-05-19T16:54:58.584Z,6.30
2023-05-19T16:57:26.211Z,8.13
2023-05-19T16:59:53.753Z,7.32
2023-05-19T17:02:21.425Z,7.05
2023-05-19T17:04:49.004Z,6.65
2023-05-19T17:07:16.947Z,6.68
2023-05-19T17:09:44.957Z,7.38
2023-05-19T17:12:12.388Z,6.72
2023-05-19T17:14:40.210Z,6.43
2023-05-19T17:17:07.702Z,6.60
2023-05-19T17:19:35.257Z,6.43
2023-05-19T17:22:02.768Z,5.40
2023-05-19T17:24:32.462Z,5.07
2023-05-19T17:27:00.335Z,5.90
2023-05-19T17:29:30.517Z,5.18
2023-05-19T17:31:58.069Z,4.60
2023-05-19T17:34:25.812Z,5.10
2023-05-19T17:36:53.202Z,5.20
2023-05-19T17:39:20.591Z,5.38
2023-05-19T17:41:48.058Z,5.82
2023-05-19T17:44:15.553Z,6.00
2023-05-19T17:46:42.953Z,5.80
2023-05-19T17:49:10.882Z,5.07
2023-05-19T17:51:38.693Z,4.93
2023-05-19T17:54:06.754Z,5.57
2023-05-19T17:56:39.602Z,5.90
2023-05-19T17:59:07.254Z,4.75
2023-05-19T18:01:34.954Z,6.43
2023-05-19T18:04:02.827Z,5.85
2023-05-19T18:06:31.874Z,5.03
2023-05-19T18:09:03.352Z,5.65
2023-05-19T18:11:30.781Z,5.90
2023-05-19T18:13:58.730Z,5.68
2023-05-19T18:16:26.248Z,5.50
2023-05-19T18:18:53.747Z,5.03
2023-05-19T18:21:21.474Z,4.75
2023-05-19T18:23:49.009Z,4.30
2023-05-19T18:26:16.484Z,4.10
2023-05-19T18:28:44.009Z,4.65
2023-05-19T18:31:17.498Z,4.15
2023-05-19T18:33:46.686Z,4.45
2023-05-19T18:36:16.511Z,4.10
2023-05-19T18:38:43.972Z,4.57
2023-05-19T18:41:12.855Z,4.82
2023-05-19T18:43:40.355Z,4.05
2023-05-19T18:46:07.730Z,5.32
2023-05-19T18:48:35.272Z,5.40
2023-05-19T18:51:03.910Z,4.75
2023-05-19T18:53:34.945Z,4.70
2023-05-19T18:56:05.465Z,4.53
2023-05-19T18:58:32.905Z,4.38
2023-05-19T19:01:00.270Z,4.50
2023-05-19T19:03:28.673Z,4.28
2023-05-19T19:05:57.213Z,5.43
2023-05-19T19:08:24.833Z,4.93
2023-05-19T19:10:54.114Z,4.78
2023-05-19T19:13:22.539Z,5.15
2023-05-19T19:15:49.924Z,4.57
2023-05-19T19:18:17.349Z,3.72
2023-05-19T19:20:44.956Z,4.32
2023-05-19T19:23:12.402Z,4.47
2023-05-19T19:25:39.757Z,4.13
2023-05-19T19:28:07.427Z,3.80
2023-05-19T19:30:35.127Z,5.45
2023-05-19T19:33:04.548Z,5.07
2023-05-19T19:35:32.172Z,4.60
2023-05-19T19:37:59.613Z,4.85
2023-05-19T19:40:26.997Z,4.80
2023-05-19T19:42:54.515Z,5.43
2023-05-19T19:45:21.953Z,5.45
2023-05-19T19:47:49.370Z,5.05
2023-05-19T19:50:17.114Z,4.25
2023-05-19T19:52:44.644Z,4.30
2023-05-19T19:55:12.125Z,4.72
2023-05-19T19:57:39.547Z,5.05
2023-05-19T20:00:08.419Z,5.13
2023-05-19T20:02:45.479Z,4.55
2023-05-19T20:05:19.107Z,4.97
2023-05-19T20:07:46.479Z,5.38
2023-05-19T20:10:14.072Z,7.50
2023-05-19T20:12:41.641Z,6.75
2023-05-19T20:15:09.552Z,5.80
2023-05-19T20:17:36.955Z,6.95
2023-05-19T20:20:09.907Z,7.72
2023-05-19T20:22:37.321Z,10.68
2023-05-19T20:25:07.828Z,13.93
2023-05-19T20:27:35.283Z,9.18
2023-05-19T20:30:02.677Z,8.68
2023-05-19T20:32:30.119Z,7.68
2023-05-19T20:34:57.738Z,7.93
2023-05-19T20:37:25.131Z,7.25
2023-05-19T20:39:52.473Z,7.22
2023-05-19T20:42:19.904Z,8.88
2023-05-19T20:44:47.294Z,7.45
2023-05-19T20:47:14.763Z,7.32
2023-05-19T20:49:42.129Z,6.95
2023-05-19T20:52:09.687Z,7.75
2023-05-19T20:54:37.076Z,7.97
2023-05-19T20:57:10.013Z,9.40
2023-05-19T20:59:37.366Z,10.90
2023-05-19T21:02:06.506Z,11.63
2023-05-19T21:04:34.684Z,11.10
2023-05-19T21:07:02.151Z,9.00
2023-05-19T21:09:29.812Z,8.68
2023-05-19T21:11:57.249Z,8.07
2023-05-19T21:14:25.472Z,7.90
2023-05-19T21:16:56.321Z,9.07
2023-05-19T21:19:26.414Z,6.95
2023-05-19T21:21:54.142Z,8.35
2023-05-19T21:24:21.498Z,8.20
2023-05-19T21:26:49.589Z,8.70
2023-05-19T21:29:17.199Z,8.32
2023-05-19T21:31:44.649Z,8.90
2023-05-19T21:34:12.599Z,7.95
2023-05-19T21:36:39.928Z,7.22
2023-05-19T21:39:07.336Z,7.90
2023-05-19T21:41:35.667Z,8.48
2023-05-19T21:44:03.576Z,8.95
2023-05-19T21:46:31.157Z,8.30
2023-05-19T21:48:58.624Z,7.00
2023-05-19T21:51:26.111Z,8.35
2023-05-19T21:53:53.597Z,7.70
2023-05-19T21:56:21.162Z,9.02
2023-05-19T21:58:48.513Z,8.52
2023-05-19T22:01:17.030Z,8.15
2023-05-19T22:03:45.373Z,8.57
2023-05-19T22:06:12.868Z,8.32
2023-05-19T22:08:40.865Z,7.43
2023-05-19T22:11:09.153Z,8.25
2023-05-19T22:13:41.144Z,8.55
2023-05-19T22:16:08.649Z,6.97
2023-05-19T22:18:36.183Z,8.52
2023-05-19T22:21:03.833Z,8.20
2023-05-19T22:23:31.418Z,7.93
2023-05-19T22:25:58.801Z,8.43
2023-05-19T22:28:27.230Z,8.90
2023-05-19T22:30:55.954Z,9.00
2023-05-19T22:33:23.503Z,8.75
2023-05-19T22:35:51.138Z,8.40
2023-05-19T22:38:18.515Z,7.25
2023-05-19T22:40:45.992Z,7.82
2023-05-19T22:43:13.338Z,7.60
2023-05-19T22:45:41.203Z,8.40
2023-05-19T22:48:08.624Z,7.25
2023-05-19T22:50:36.054Z,7.28
2023-05-19T22:53:03.554Z,9.32
2023-05-19T22:55:30.938Z,7.13
2023-05-19T22:57:58.301Z,8.18
2023-05-19T23:00:25.706Z,7.90
2023-05-19T23:02:53.204Z,6.95
2023-05-19T23:05:20.938Z,8.32
2023-05-19T23:07:48.355Z,7.80
2023-05-19T23:10:15.971Z,7.20
2023-05-19T23:12:44.367Z,7.20
2023-05-19T23:15:12.120Z,7.47
2023-05-19T23:17:39.732Z,7.47
2023-05-19T23:20:07.900Z,7.60
2023-05-19T23:22:35.492Z,7.57
2023-05-19T23:25:07.647Z,7.82
2023-05-19T23:27:36.531Z,7.55
2023-05-19T23:30:04.688Z,6.93
2023-05-19T23:32:32.444Z,7.55
2023-05-19T23:35:13.418Z,7.53
2023-05-19T23:37:41.309Z,7.82
2023-05-19T23:40:10.684Z,8.10
2023-05-19T23:42:40.632Z,7.10
2023-05-19T23:45:08.544Z,8.02
2023-05-19T23:47:36.161Z,7.80
2023-05-19T23:50:03.781Z,7.75
2023-05-19T23:52:31.854Z,8.68
2023-05-19T23:54:59.314Z,8.05
2023-05-19T23:57:26.802Z,8.20
2023-05-19T23:59:54.411Z,8.32
